Terminal Aerodrome Forecast
Issued by NWS Cleveland, OH

Home | Current Version | Previous Version | Graphics & Text | Print | Product List | Glossary On
Versions: 1 2 3 4 5 6 7 8 9 10 11 12 13 14 15
000
FTUS41 KCLE 272332
TAFERI
TAF
KERI 272332Z 2800/2824 24015G25KT P6SM BKN050
      TEMPO 2800/2802 27020G40KT 2SM TSRA OVC035CB
     FM280200 22008KT P6SM VCSH BKN080
     FM280500 24003KT P6SM BKN120
     FM280900 32003KT P6SM SKC
     FM281400 35005KT P6SM SKC=

USA.gov is the U.S. government's official web portal to all federal, state and local government web resources and services.